createdAt,value
2023-04-29T00:01:05.311Z,13.90
2023-04-29T00:03:34.151Z,13.80
2023-04-29T00:06:03.584Z,13.80
2023-04-29T00:08:33.631Z,13.80
2023-04-29T00:11:02.329Z,13.80
2023-04-29T00:13:30.887Z,13.70
2023-04-29T00:15:59.444Z,13.70
2023-04-29T00:18:28.071Z,13.60
2023-04-29T00:20:58.470Z,13.60
2023-04-29T00:23:27.014Z,13.70
2023-04-29T00:25:57.312Z,13.60
2023-04-29T00:28:25.887Z,13.50
2023-04-29T00:30:55.747Z,13.40
2023-04-29T00:33:24.619Z,13.40
2023-04-29T00:35:53.211Z,13.40
2023-04-29T00:38:22.138Z,13.30
2023-04-29T00:40:50.807Z,13.30
2023-04-29T00:43:21.590Z,13.30
2023-04-29T00:45:50.952Z,13.30
2023-04-29T00:48:19.545Z,13.30
2023-04-29T00:50:48.134Z,13.30
2023-04-29T00:53:16.698Z,13.30
2023-04-29T00:55:45.790Z,13.30
2023-04-29T00:58:14.972Z,13.30
2023-04-29T01:00:47.082Z,13.20
2023-04-29T01:03:16.466Z,13.30
2023-04-29T01:05:51.521Z,13.30
2023-04-29T01:08:30.476Z,13.30
2023-04-29T01:11:09.016Z,13.20
2023-04-29T01:13:44.969Z,13.20
2023-04-29T01:16:22.582Z,13.20
2023-04-29T01:18:56.310Z,13.20
2023-04-29T01:21:32.057Z,13.20
2023-04-29T01:24:02.416Z,13.20
2023-04-29T01:26:35.816Z,13.10
2023-04-29T01:29:28.852Z,13.00
2023-04-29T01:32:09.116Z,13.00
2023-04-29T01:34:48.114Z,12.90
2023-04-29T01:37:23.787Z,12.90
2023-04-29T01:40:02.555Z,12.80
2023-04-29T01:42:40.430Z,12.90
2023-04-29T01:45:17.001Z,12.90
2023-04-29T01:47:47.615Z,12.80
2023-04-29T01:50:23.384Z,12.80
2023-04-29T01:52:52.234Z,12.80
2023-04-29T01:55:22.924Z,12.80
2023-04-29T01:58:08.257Z,12.80
2023-04-29T02:01:00.826Z,12.70
2023-04-29T02:03:32.252Z,12.70
2023-04-29T02:06:02.646Z,12.70
2023-04-29T02:08:31.199Z,12.70
2023-04-29T02:11:01.559Z,12.80
2023-04-29T02:13:48.784Z,12.70
2023-04-29T02:16:18.902Z,12.70
2023-04-29T02:19:14.742Z,12.70
2023-04-29T02:21:44.082Z,12.60
2023-04-29T02:24:15.690Z,12.60
2023-04-29T02:26:45.740Z,12.60
2023-04-29T02:29:15.010Z,12.60
2023-04-29T02:31:45.692Z,12.60
2023-04-29T02:34:14.754Z,12.50
2023-04-29T02:36:43.772Z,12.50
2023-04-29T02:39:12.764Z,12.50
2023-04-29T02:41:42.210Z,12.40
2023-04-29T02:44:14.821Z,12.40
2023-04-29T02:46:45.804Z,12.40
2023-04-29T02:49:14.827Z,12.40
2023-04-29T02:51:43.435Z,12.30
2023-04-29T02:54:12.729Z,12.30
2023-04-29T02:56:41.327Z,12.30
2023-04-29T02:59:10.035Z,12.20
2023-04-29T03:01:40.241Z,12.30
2023-04-29T03:04:09.295Z,12.30
2023-04-29T03:06:38.070Z,12.20
2023-04-29T03:09:06.919Z,12.20
2023-04-29T03:11:35.513Z,12.20
2023-04-29T03:14:04.073Z,12.20
2023-04-29T03:16:32.856Z,12.10
2023-04-29T03:19:03.029Z,12.10
2023-04-29T03:21:31.618Z,12.10
2023-04-29T03:24:00.582Z,12.00
2023-04-29T03:26:34.690Z,12.00
2023-04-29T03:29:05.179Z,12.00
2023-04-29T03:31:35.020Z,12.10
2023-04-29T03:34:04.996Z,12.00
2023-04-29T03:36:37.104Z,12.10
2023-04-29T03:39:09.081Z,12.10
2023-04-29T03:41:37.981Z,12.00
2023-04-29T03:44:06.581Z,12.10
2023-04-29T03:46:35.308Z,12.00
2023-04-29T03:49:05.770Z,12.00
2023-04-29T03:51:34.426Z,12.00
2023-04-29T03:54:15.451Z,12.00
2023-04-29T03:56:44.288Z,11.90
2023-04-29T03:59:14.079Z,12.00
2023-04-29T04:01:43.524Z,11.90
2023-04-29T04:04:15.580Z,12.00
2023-04-29T04:06:51.537Z,11.90
2023-04-29T04:09:22.386Z,11.90
2023-04-29T04:11:51.108Z,11.90
2023-04-29T04:14:20.184Z,11.90
2023-04-29T04:16:50.660Z,11.90
2023-04-29T04:19:20.943Z,11.80
2023-04-29T04:21:49.599Z,11.80
2023-04-29T04:24:18.206Z,11.70
2023-04-29T04:26:46.895Z,11.70
2023-04-29T04:29:30.844Z,11.70
2023-04-29T04:32:02.721Z,11.70
2023-04-29T04:34:33.803Z,11.60
2023-04-29T04:37:04.037Z,11.50
2023-04-29T04:39:33.644Z,11.50
2023-04-29T04:42:03.200Z,11.50
2023-04-29T04:44:34.297Z,11.40
2023-04-29T04:47:08.083Z,11.30
2023-04-29T04:49:53.978Z,11.30
2023-04-29T04:52:23.927Z,11.30
2023-04-29T04:55:04.598Z,11.30
2023-04-29T04:57:37.067Z,11.30
2023-04-29T05:00:06.999Z,11.20
2023-04-29T05:02:35.958Z,11.20
2023-04-29T05:05:06.765Z,11.20
2023-04-29T05:07:37.969Z,11.10
2023-04-29T05:10:08.524Z,11.10
2023-04-29T05:12:43.376Z,11.10
2023-04-29T05:15:12.660Z,11.10
2023-04-29T05:17:41.350Z,11.10
2023-04-29T05:20:12.384Z,11.00
2023-04-29T05:22:40.996Z,11.00
2023-04-29T05:25:10.399Z,11.00
2023-04-29T05:27:39.239Z,11.00
2023-04-29T05:30:12.189Z,11.00
2023-04-29T05:32:40.941Z,11.00
2023-04-29T05:35:14.341Z,11.00
2023-04-29T05:37:43.172Z,11.00
2023-04-29T05:40:27.952Z,11.00
2023-04-29T05:43:09.235Z,10.90
2023-04-29T05:45:39.011Z,10.90
2023-04-29T05:48:07.967Z,10.90
2023-04-29T05:50:37.890Z,10.90
2023-04-29T05:53:06.807Z,10.80
2023-04-29T05:55:35.639Z,10.80
2023-04-29T05:58:04.233Z,10.70
2023-04-29T06:00:32.884Z,10.70
2023-04-29T06:03:10.937Z,10.70
2023-04-29T06:05:42.034Z,10.60
2023-04-29T06:08:35.410Z,10.60
2023-04-29T06:11:06.699Z,10.60
2023-04-29T06:13:35.634Z,10.60
2023-04-29T06:16:04.572Z,10.60
2023-04-29T06:18:35.291Z,10.60
2023-04-29T06:21:05.561Z,10.60
2023-04-29T06:23:34.204Z,10.60
2023-04-29T06:26:07.948Z,10.60
2023-04-29T06:28:36.740Z,10.60
2023-04-29T06:31:05.573Z,10.60
2023-04-29T06:33:34.776Z,10.60
2023-04-29T06:36:03.443Z,10.60
2023-04-29T06:39:08.913Z,10.60
2023-04-29T06:42:10.232Z,10.60
2023-04-29T06:44:54.199Z,10.60
2023-04-29T06:47:22.931Z,10.70
2023-04-29T06:50:09.267Z,10.60
2023-04-29T06:52:38.480Z,10.60
2023-04-29T06:55:11.150Z,10.60
2023-04-29T06:57:40.678Z,10.60
2023-04-29T07:00:10.249Z,10.70
2023-04-29T07:02:39.886Z,10.60
2023-04-29T07:05:09.536Z,10.60
2023-04-29T07:07:39.523Z,10.60
2023-04-29T07:10:10.546Z,10.70
2023-04-29T07:12:39.113Z,10.70
2023-04-29T07:15:08.782Z,10.70
2023-04-29T07:17:37.612Z,10.70
2023-04-29T07:20:07.821Z,10.70
2023-04-29T07:22:36.339Z,10.70
2023-04-29T07:25:05.335Z,10.80
2023-04-29T07:27:35.999Z,10.80
2023-04-29T07:30:05.157Z,10.80
2023-04-29T07:32:33.876Z,10.80
2023-04-29T07:35:06.218Z,10.80
2023-04-29T07:37:34.862Z,10.80
2023-04-29T07:40:03.603Z,10.90
2023-04-29T07:42:32.218Z,10.90
2023-04-29T07:45:02.766Z,10.90
2023-04-29T07:47:31.429Z,10.90
2023-04-29T07:50:00.303Z,10.90
2023-04-29T07:52:29.048Z,10.90
2023-04-29T07:54:57.696Z,10.90
2023-04-29T07:57:26.258Z,10.90
2023-04-29T07:59:55.496Z,11.00
2023-04-29T08:02:25.636Z,11.00
2023-04-29T08:04:59.145Z,11.00
2023-04-29T08:07:28.162Z,11.00
2023-04-29T08:09:56.770Z,11.00
2023-04-29T08:12:25.522Z,10.90
2023-04-29T08:14:54.249Z,11.00
2023-04-29T08:17:25.337Z,11.00
2023-04-29T08:19:53.909Z,11.00
2023-04-29T08:22:22.405Z,11.00
2023-04-29T08:24:51.270Z,11.10
2023-04-29T08:27:21.394Z,11.10
2023-04-29T08:29:49.905Z,11.20
2023-04-29T08:32:32.801Z,11.20
2023-04-29T08:35:01.746Z,11.30
2023-04-29T08:37:30.256Z,11.40
2023-04-29T08:39:58.919Z,11.40
2023-04-29T08:42:34.816Z,11.40
2023-04-29T08:45:04.659Z,11.50
2023-04-29T08:47:35.140Z,11.40
2023-04-29T08:50:05.549Z,11.50
2023-04-29T08:52:34.320Z,11.50
2023-04-29T08:55:03.438Z,11.50
2023-04-29T08:57:39.492Z,11.50
2023-04-29T09:00:10.535Z,11.50
2023-04-29T09:02:46.940Z,11.50
2023-04-29T09:05:15.512Z,11.40
2023-04-29T09:07:45.425Z,11.40
2023-04-29T09:10:14.941Z,11.50
2023-04-29T09:12:43.483Z,11.50
2023-04-29T09:15:12.420Z,11.40
2023-04-29T09:17:46.769Z,11.40
2023-04-29T09:20:29.032Z,11.40
2023-04-29T09:22:59.113Z,11.40
2023-04-29T09:25:28.155Z,11.30
2023-04-29T09:27:57.357Z,11.30
2023-04-29T09:30:26.696Z,11.30
2023-04-29T09:33:08.966Z,11.30
2023-04-29T09:35:38.054Z,11.40
2023-04-29T09:38:11.894Z,11.40
2023-04-29T09:40:57.296Z,11.40
2023-04-29T09:43:27.998Z,11.40
2023-04-29T09:45:56.952Z,11.40
2023-04-29T09:48:33.825Z,11.40
2023-04-29T09:51:03.873Z,11.50
2023-04-29T09:53:33.366Z,11.50
2023-04-29T09:56:03.939Z,11.60
2023-04-29T09:58:37.328Z,11.60
2023-04-29T10:01:07.393Z,11.70
2023-04-29T10:03:39.519Z,11.80
2023-04-29T10:06:09.335Z,11.90
2023-04-29T10:08:38.304Z,12.00
2023-04-29T10:11:08.214Z,12.20
2023-04-29T10:13:38.863Z,12.30
2023-04-29T10:16:18.820Z,12.30
2023-04-29T10:18:53.167Z,12.40
2023-04-29T10:21:25.784Z,12.40
2023-04-29T10:23:57.290Z,12.30
2023-04-29T10:26:29.347Z,12.30
2023-04-29T10:29:00.080Z,12.20
2023-04-29T10:31:30.172Z,12.20
2023-04-29T10:34:01.663Z,12.20
2023-04-29T10:36:31.414Z,12.10
2023-04-29T10:39:01.879Z,12.10
2023-04-29T10:41:35.629Z,12.10
2023-04-29T10:44:06.084Z,12.00
2023-04-29T10:46:34.700Z,12.00
2023-04-29T10:49:06.776Z,12.00
2023-04-29T10:51:36.686Z,12.00
2023-04-29T10:54:09.111Z,12.00
2023-04-29T10:56:42.665Z,12.00
2023-04-29T10:59:13.426Z,12.00
2023-04-29T11:01:47.340Z,12.00
2023-04-29T11:04:18.289Z,12.00
2023-04-29T11:06:48.855Z,12.00
2023-04-29T11:09:22.094Z,12.00
2023-04-29T11:12:02.873Z,11.90
2023-04-29T11:14:33.979Z,11.90
2023-04-29T11:17:04.907Z,11.90
2023-04-29T11:19:36.618Z,11.90
2023-04-29T11:22:11.781Z,11.90
2023-04-29T11:24:51.275Z,11.90
2023-04-29T11:27:22.977Z,11.90
2023-04-29T11:29:52.162Z,11.90
2023-04-29T11:32:23.088Z,11.90
2023-04-29T11:34:53.546Z,11.90
2023-04-29T11:37:23.826Z,11.90
2023-04-29T11:39:53.163Z,11.90
2023-04-29T11:42:22.751Z,11.80
2023-04-29T11:44:56.909Z,11.80
2023-04-29T11:47:29.216Z,11.80
2023-04-29T11:50:05.802Z,11.80
2023-04-29T11:52:34.622Z,11.80
2023-04-29T11:55:03.953Z,11.80
2023-04-29T11:57:32.611Z,11.80
2023-04-29T12:00:01.701Z,11.80
2023-04-29T12:02:31.644Z,11.90
2023-04-29T12:05:01.519Z,11.80
2023-04-29T12:07:32.450Z,11.80
2023-04-29T12:10:01.125Z,11.80
2023-04-29T12:12:31.710Z,11.80
2023-04-29T12:15:00.472Z,11.80
2023-04-29T12:17:29.310Z,11.90
2023-04-29T12:19:58.374Z,11.90
2023-04-29T12:22:34.092Z,11.90
2023-04-29T12:25:05.411Z,11.90
2023-04-29T12:27:34.897Z,11.80
2023-04-29T12:30:03.717Z,11.80
2023-04-29T12:32:34.755Z,11.80
2023-04-29T12:35:03.491Z,11.80
2023-04-29T12:37:35.307Z,11.80
2023-04-29T12:40:05.103Z,11.80
2023-04-29T12:42:34.779Z,11.80
2023-04-29T12:45:04.166Z,11.80
2023-04-29T12:47:34.872Z,11.80
2023-04-29T12:50:03.913Z,11.80
2023-04-29T12:52:35.943Z,11.80
2023-04-29T12:55:06.566Z,11.70
2023-04-29T12:57:35.118Z,11.80
2023-04-29T13:00:03.904Z,11.70
2023-04-29T13:02:32.851Z,11.70
2023-04-29T13:05:01.919Z,11.80
2023-04-29T13:07:30.826Z,11.70
2023-04-29T13:10:02.220Z,11.70
2023-04-29T13:12:30.859Z,11.70
2023-04-29T13:14:59.935Z,11.70
2023-04-29T13:17:28.882Z,11.80
2023-04-29T13:19:57.430Z,11.70
2023-04-29T13:22:26.017Z,11.80
2023-04-29T13:24:55.064Z,11.80
2023-04-29T13:27:25.560Z,11.80
2023-04-29T13:29:54.074Z,11.80
2023-04-29T13:32:24.700Z,11.80
2023-04-29T13:34:53.545Z,11.90
2023-04-29T13:37:22.273Z,12.00
2023-04-29T13:39:57.005Z,12.00
2023-04-29T13:42:27.803Z,12.10
2023-04-29T13:44:57.370Z,12.20
2023-04-29T13:47:29.933Z,12.30
2023-04-29T13:50:36.964Z,12.40
2023-04-29T14:01:01.462Z,12.30
2023-04-29T14:03:14.277Z,12.30
2023-04-29T14:05:43.382Z,12.30
2023-04-29T14:08:12.207Z,12.30
2023-04-29T14:10:41.294Z,12.30
2023-04-29T14:13:11.288Z,12.30
2023-04-29T14:15:39.923Z,12.40
2023-04-29T14:18:09.620Z,12.40
2023-04-29T14:20:38.244Z,12.50
2023-04-29T14:23:06.953Z,12.70
2023-04-29T14:25:35.592Z,12.70
2023-04-29T14:28:04.372Z,12.80
2023-04-29T14:30:34.483Z,12.90
2023-04-29T14:33:03.286Z,12.90
2023-04-29T14:35:32.436Z,13.00
2023-04-29T14:38:01.071Z,13.00
2023-04-29T14:40:29.808Z,13.10
2023-04-29T14:42:58.375Z,13.10
2023-04-29T14:45:26.922Z,13.10
2023-04-29T14:47:57.045Z,13.20
2023-04-29T14:50:25.957Z,13.20
2023-04-29T14:52:57.744Z,13.20
2023-04-29T14:55:26.741Z,13.30
2023-04-29T14:57:55.335Z,13.30
2023-04-29T15:00:23.883Z,13.30
2023-04-29T15:02:55.484Z,13.30
2023-04-29T15:05:25.663Z,13.30
2023-04-29T15:07:54.269Z,13.40
2023-04-29T15:10:23.238Z,13.50
2023-04-29T15:12:52.509Z,13.40
2023-04-29T15:15:21.701Z,13.40
2023-04-29T15:17:50.677Z,13.40
2023-04-29T15:20:19.410Z,13.40
2023-04-29T15:22:49.382Z,13.40
2023-04-29T15:25:18.085Z,13.40
2023-04-29T15:27:47.277Z,13.40
2023-04-29T15:30:16.600Z,13.40
2023-04-29T15:32:45.144Z,13.30
2023-04-29T15:35:13.808Z,13.30
2023-04-29T15:37:42.340Z,13.30
2023-04-29T15:40:13.353Z,13.20
2023-04-29T15:42:41.970Z,13.20
2023-04-29T15:45:11.696Z,13.20
2023-04-29T15:47:40.263Z,13.10
2023-04-29T15:50:10.446Z,13.10
2023-04-29T15:52:39.077Z,13.10
2023-04-29T15:55:08.488Z,13.00
2023-04-29T15:57:41.209Z,13.00
2023-04-29T16:00:11.267Z,13.00
2023-04-29T16:02:39.828Z,13.00
2023-04-29T16:05:09.181Z,12.90
2023-04-29T16:07:37.826Z,12.90
2023-04-29T16:10:07.146Z,12.90
2023-04-29T16:12:35.679Z,12.90
2023-04-29T16:15:08.568Z,12.90
2023-04-29T16:17:37.313Z,12.90
2023-04-29T16:20:06.771Z,12.90
2023-04-29T16:22:35.353Z,12.90
2023-04-29T16:25:04.186Z,12.90
2023-04-29T16:27:32.875Z,13.00
2023-04-29T16:30:01.567Z,13.00
2023-04-29T16:32:33.372Z,13.00
2023-04-29T16:35:02.108Z,13.00
2023-04-29T16:37:30.719Z,13.00
2023-04-29T16:39:59.313Z,13.00
2023-04-29T16:42:27.869Z,13.00
2023-04-29T16:44:56.466Z,13.00
2023-04-29T16:47:25.292Z,13.00
2023-04-29T16:49:55.360Z,13.00
2023-04-29T16:52:24.263Z,13.00
2023-04-29T16:54:52.939Z,13.00
2023-04-29T16:57:22.101Z,13.10
2023-04-29T16:59:50.758Z,13.10
2023-04-29T17:02:19.428Z,13.10
2023-04-29T17:04:48.321Z,13.10
2023-04-29T17:07:19.522Z,13.10
2023-04-29T17:09:48.348Z,13.20
2023-04-29T17:12:16.888Z,13.20
2023-04-29T17:14:45.346Z,13.20
2023-04-29T17:17:13.887Z,13.20
2023-04-29T17:19:42.883Z,13.20
2023-04-29T17:22:11.459Z,13.20
2023-04-29T17:24:44.771Z,13.20
2023-04-29T17:27:13.934Z,13.20
2023-04-29T17:29:42.745Z,13.20
2023-04-29T17:32:13.442Z,13.20
2023-04-29T17:34:42.455Z,13.10
2023-04-29T17:37:11.314Z,13.10
2023-04-29T17:39:41.313Z,13.10
2023-04-29T17:42:09.807Z,13.10
2023-04-29T17:44:38.293Z,13.00
2023-04-29T17:47:09.208Z,13.00
2023-04-29T17:49:37.820Z,13.00
2023-04-29T17:52:06.579Z,12.90
2023-04-29T17:54:35.327Z,12.90
2023-04-29T17:57:05.290Z,12.90
2023-04-29T17:59:33.872Z,13.00
2023-04-29T18:02:02.538Z,12.90
2023-04-29T18:04:31.126Z,12.90
2023-04-29T18:06:59.681Z,12.80
2023-04-29T18:09:28.213Z,12.90
2023-04-29T18:11:56.814Z,12.80
2023-04-29T18:14:28.967Z,12.80
2023-04-29T18:16:58.360Z,12.80
2023-04-29T18:19:27.039Z,12.70
2023-04-29T18:21:58.077Z,12.70
2023-04-29T18:24:27.344Z,12.70
2023-04-29T18:26:57.054Z,12.70
2023-04-29T18:29:27.039Z,12.60
2023-04-29T18:31:55.668Z,12.60
2023-04-29T18:34:24.236Z,12.60
2023-04-29T18:36:53.034Z,12.60
2023-04-29T18:39:21.675Z,12.60
2023-04-29T18:41:50.342Z,12.60
2023-04-29T18:44:19.002Z,12.50
2023-04-29T18:46:48.923Z,12.50
2023-04-29T18:49:18.037Z,12.40
2023-04-29T18:51:47.345Z,12.40
2023-04-29T18:54:17.554Z,12.30
2023-04-29T18:56:48.343Z,12.30
2023-04-29T18:59:19.204Z,12.20
2023-04-29T19:01:49.906Z,12.20
2023-04-29T19:04:18.593Z,12.10
2023-04-29T19:06:47.221Z,12.00
2023-04-29T19:09:16.023Z,12.00
2023-04-29T19:11:44.624Z,12.00
2023-04-29T19:14:15.040Z,11.90
2023-04-29T19:16:43.612Z,11.90
2023-04-29T19:19:13.558Z,11.80
2023-04-29T19:21:42.195Z,11.80
2023-04-29T19:24:10.890Z,11.70
2023-04-29T19:26:40.283Z,11.60
2023-04-29T19:29:08.917Z,11.60
2023-04-29T19:31:38.063Z,11.60
2023-04-29T19:34:06.599Z,11.60
2023-04-29T19:36:37.724Z,11.50
2023-04-29T19:39:06.408Z,11.50
2023-04-29T19:41:35.237Z,11.50
2023-04-29T19:44:03.932Z,11.50
2023-04-29T19:46:32.658Z,11.50
2023-04-29T19:49:01.835Z,11.50
2023-04-29T19:51:30.998Z,11.50
2023-04-29T19:54:01.910Z,11.50
2023-04-29T19:56:30.605Z,11.40
2023-04-29T19:58:59.333Z,11.40
2023-04-29T20:01:27.950Z,11.40
2023-04-29T20:03:56.506Z,11.40
2023-04-29T20:06:25.204Z,11.30
2023-04-29T20:08:54.184Z,11.30
2023-04-29T20:11:24.755Z,11.30
2023-04-29T20:13:53.323Z,11.30
2023-04-29T20:16:23.252Z,11.30
2023-04-29T20:18:51.886Z,11.30
2023-04-29T20:21:20.480Z,11.20
2023-04-29T20:23:49.074Z,11.20
2023-04-29T20:26:19.538Z,11.20
2023-04-29T20:28:49.724Z,11.20
2023-04-29T20:31:18.340Z,11.10
2023-04-29T20:33:46.937Z,11.10
2023-04-29T20:36:15.592Z,11.10
2023-04-29T20:38:44.139Z,11.10
2023-04-29T20:41:12.592Z,11.10
2023-04-29T20:43:41.125Z,11.00
2023-04-29T20:46:13.479Z,11.00
2023-04-29T20:48:42.526Z,10.90
2023-04-29T20:51:12.690Z,11.00
2023-04-29T20:53:41.231Z,10.90
2023-04-29T20:56:11.024Z,10.90
2023-04-29T20:58:39.600Z,10.90
2023-04-29T21:01:08.960Z,10.90
2023-04-29T21:03:39.017Z,10.90
2023-04-29T21:06:07.746Z,10.90
2023-04-29T21:08:36.453Z,10.90
2023-04-29T21:11:07.767Z,10.90
2023-04-29T21:13:36.416Z,10.90
2023-04-29T21:16:05.537Z,10.90
2023-04-29T21:18:34.061Z,10.80
2023-04-29T21:21:04.006Z,10.80
2023-04-29T21:23:32.571Z,10.80
2023-04-29T21:26:01.155Z,10.80
2023-04-29T21:28:29.794Z,10.80
2023-04-29T21:30:59.307Z,10.80
2023-04-29T21:33:28.000Z,10.80
2023-04-29T21:35:56.572Z,10.80
2023-04-29T21:38:26.562Z,10.70
2023-04-29T21:40:55.145Z,10.70
2023-04-29T21:43:23.877Z,10.70
2023-04-29T21:45:54.551Z,10.70
2023-04-29T21:48:23.248Z,10.70
2023-04-29T21:50:51.781Z,10.70
2023-04-29T21:53:20.406Z,10.70
2023-04-29T21:55:50.316Z,10.60
2023-04-29T21:58:20.910Z,10.60
2023-04-29T22:00:58.448Z,10.60
2023-04-29T22:03:27.288Z,10.60
2023-04-29T22:05:56.281Z,10.60
2023-04-29T22:08:25.290Z,10.60
2023-04-29T22:10:55.220Z,10.60
2023-04-29T22:13:23.687Z,10.60
2023-04-29T22:15:52.365Z,10.60
2023-04-29T22:18:21.088Z,10.60
2023-04-29T22:20:49.748Z,10.60
2023-04-29T22:23:18.335Z,10.60
2023-04-29T22:25:46.878Z,10.60
2023-04-29T22:28:16.804Z,10.70
2023-04-29T22:30:47.191Z,10.60
2023-04-29T22:33:16.058Z,10.60
2023-04-29T22:35:44.659Z,10.60
2023-04-29T22:38:13.635Z,10.60
2023-04-29T22:40:42.170Z,10.60
2023-04-29T22:43:10.839Z,10.60
2023-04-29T22:45:40.793Z,10.60
2023-04-29T22:48:09.562Z,10.60
2023-04-29T22:50:39.977Z,10.60
2023-04-29T22:53:08.503Z,10.60
2023-04-29T22:55:37.126Z,10.70
2023-04-29T22:58:05.775Z,10.60
2023-04-29T23:00:34.323Z,10.60
2023-04-29T23:03:04.319Z,10.60
2023-04-29T23:05:33.090Z,10.60
2023-04-29T23:08:02.496Z,10.60
2023-04-29T23:10:33.426Z,10.60
2023-04-29T23:13:02.100Z,10.60
2023-04-29T23:15:31.207Z,10.60
2023-04-29T23:18:00.043Z,10.50
2023-04-29T23:20:30.336Z,10.50
2023-04-29T23:22:58.969Z,10.50
2023-04-29T23:25:27.578Z,10.50
2023-04-29T23:27:56.384Z,10.40
2023-04-29T23:30:24.960Z,10.40
2023-04-29T23:32:53.539Z,10.40
2023-04-29T23:35:22.228Z,10.40
2023-04-29T23:37:52.108Z,10.40
2023-04-29T23:40:20.692Z,10.30
2023-04-29T23:42:49.267Z,10.30
2023-04-29T23:45:18.005Z,10.30
2023-04-29T23:47:46.862Z,10.20
2023-04-29T23:50:15.492Z,10.20
2023-04-29T23:52:44.065Z,10.20
2023-04-29T23:55:13.950Z,10.10
2023-04-29T23:57:42.411Z,10.10
